Search for airport 
image banner adimage banner ad
image banner ad

DGSI - Kumasi

Located in Kumasi, Ghana

ICAO - DGSI, IATA - KMS

Data provided by Airmate  

General information

Coordinates: N6°42'53" W1°35'27"
Elevation is 942 feet MSL.
 
Rated:
View ratings: [VIEW]


View others Airports in Ashanti Region

Operational data

Open for public use
Current time UTC:
Current local time:
Weather
METAR: DGSI 211700Z 00000KT 9999 SCT008 31/22 Q1011 NOSIG
TAF: TAF DGSI 211100Z 2112/2218 23010KT 9999 BKN015 PROB30 TEMPO 2114/2118 6000 RA BKN009 BECMG 2205/2209 5000 BR BKN007
View NOTAMs / SUP AIP / TFR affecting this airport [VIEW]
Communications frequencies: [VIEW]

Runways:

RWY identifierQFULength (ft)Width (ft)SurfaceLDA (ft)
0212°6542148ASP
20192°6542148

Airport contact information

Address: Kumasi Ghana

Satellite view of DGSI